Time;durP1;ratioP1;P1;durP2;ratioP2;P2;SDS_P1;SDS_P2;PMS_P1;PMS_P2;Temp;Humidity;BMP_temperature;BMP_pressure;BME280_temperature;BME280_humidity;BME280_pressure;Samples;Min_cycle;Max_cycle;Signal;HPM_P1;HPM_P2
2021/07/18 00:01:10;;;;;;;28.87;24.60;;;17.50;99.90;;;;;;5093148;28;20803;-66
2021/07/18 00:03:38;;;;;;;31.47;25.47;;;17.50;99.90;;;;;;5093285;28;20466;-66
2021/07/18 00:06:05;;;;;;;27.00;24.00;;;17.50;99.90;;;;;;5093304;28;20806;-65
2021/07/18 00:08:32;;;;;;;26.77;21.50;;;17.40;99.90;;;;;;5093101;28;21111;-65
2021/07/18 00:10:59;;;;;;;26.53;23.10;;;17.30;99.90;;;;;;5093237;28;20812;-65
2021/07/18 00:13:25;;;;;;;23.73;21.20;;;17.30;99.90;;;;;;5093281;28;21006;-65
2021/07/18 00:15:52;;;;;;;26.97;24.07;;;17.20;99.90;;;;;;5092201;28;20883;-68
2021/07/18 00:18:19;;;;;;;26.17;23.37;;;17.10;99.90;;;;;;5091524;28;20468;-66
2021/07/18 00:20:50;;;;;;;25.57;22.87;;;17.20;99.90;;;;;;5092194;28;20911;-65
2021/07/18 00:23:17;;;;;;;29.83;25.00;;;17.10;99.90;;;;;;5093010;28;20466;-67
2021/07/18 00:25:44;;;;;;;26.63;23.83;;;17.00;99.90;;;;;;5093153;28;20887;-65
2021/07/18 00:28:11;;;;;;;26.47;22.97;;;17.00;99.90;;;;;;5093578;28;20469;-67
2021/07/18 00:30:38;;;;;;;29.00;25.00;;;16.90;99.90;;;;;;5092598;28;20431;-65
2021/07/18 00:33:06;;;;;;;26.17;23.27;;;16.90;99.90;;;;;;5092860;28;20553;-67
2021/07/18 00:35:33;;;;;;;28.50;23.07;;;16.90;99.90;;;;;;5092961;28;20442;-66
2021/07/18 00:38:02;;;;;;;34.70;26.20;;;16.80;99.90;;;;;;5093106;28;20450;-66
2021/07/18 00:40:29;;;;;;;30.60;26.80;;;16.80;99.90;;;;;;5092565;28;20529;-68
2021/07/18 00:42:56;;;;;;;32.87;26.90;;;16.80;99.90;;;;;;5093258;28;20544;-66
2021/07/18 00:45:23;;;;;;;32.77;25.67;;;16.80;99.90;;;;;;5092916;28;20445;-68
2021/07/18 00:47:50;;;;;;;32.73;24.40;;;16.80;99.90;;;;;;5092492;28;20555;-66
2021/07/18 00:50:18;;;;;;;27.20;23.73;;;16.80;99.90;;;;;;5092592;28;20447;-64
2021/07/18 00:52:45;;;;;;;27.93;24.83;;;16.80;99.90;;;;;;5092413;28;20450;-66
2021/07/18 00:55:15;;;;;;;26.47;23.60;;;16.70;99.90;;;;;;5092342;28;20577;-66
2021/07/18 00:57:46;;;;;;;27.37;23.90;;;16.70;99.90;;;;;;5092638;28;20446;-66
2021/07/18 01:00:14;;;;;;;24.87;21.20;;;16.70;99.90;;;;;;5092216;28;20944;-65
2021/07/18 01:02:41;;;;;;;27.60;23.37;;;16.70;99.90;;;;;;5092456;28;20457;-66
2021/07/18 01:05:14;;;;;;;27.83;23.13;;;16.60;99.90;;;;;;5092262;28;20446;-66
2021/07/18 01:07:41;;;;;;;27.80;21.70;;;16.60;99.90;;;;;;5092515;28;20442;-67
2021/07/18 01:10:09;;;;;;;24.40;21.83;;;16.60;99.90;;;;;;5092668;28;20457;-68
2021/07/18 01:12:38;;;;;;;26.47;21.97;;;16.60;99.90;;;;;;5092859;28;20446;-65
2021/07/18 01:15:06;;;;;;;25.50;21.67;;;16.50;99.90;;;;;;5092256;28;20478;-66
2021/07/18 01:17:33;;;;;;;26.50;20.03;;;16.40;99.90;;;;;;5092245;28;20438;-66
2021/07/18 01:20:01;;;;;;;22.53;19.80;;;16.40;99.90;;;;;;5092004;28;20438;-66
2021/07/18 01:22:29;;;;;;;23.70;20.27;;;16.30;99.90;;;;;;5091902;28;20502;-66
2021/07/18 01:24:57;;;;;;;27.83;21.10;;;16.30;99.90;;;;;;5091866;28;20462;-66
2021/07/18 01:27:25;;;;;;;22.70;20.30;;;16.20;99.90;;;;;;5091647;28;20445;-67
2021/07/18 01:29:52;;;;;;;21.27;18.83;;;16.20;99.90;;;;;;5091770;28;20549;-66
2021/07/18 01:32:19;;;;;;;22.00;18.30;;;16.20;99.90;;;;;;5091969;28;20521;-66
2021/07/18 01:34:47;;;;;;;22.43;18.97;;;16.10;99.90;;;;;;5091721;28;20481;-67
2021/07/18 01:37:14;;;;;;;22.70;19.30;;;16.10;99.90;;;;;;5091812;28;20544;-66
2021/07/18 01:39:42;;;;;;;20.13;18.07;;;16.00;99.90;;;;;;5091125;28;20525;-65
2021/07/18 01:42:10;;;;;;;20.00;17.93;;;16.00;99.90;;;;;;5091912;28;20448;-65
2021/07/18 01:44:37;;;;;;;21.00;17.40;;;16.00;99.90;;;;;;5091484;28;20466;-66
2021/07/18 01:47:04;;;;;;;19.83;17.83;;;16.00;99.90;;;;;;5091700;28;20454;-66
2021/07/18 01:49:31;;;;;;;25.00;18.23;;;16.00;99.90;;;;;;5091295;28;20944;-66
2021/07/18 01:51:58;;;;;;;18.33;16.43;;;15.90;99.90;;;;;;5091209;28;20438;-65
2021/07/18 01:54:25;;;;;;;20.03;17.93;;;15.80;99.90;;;;;;5091073;28;20859;-66
2021/07/18 01:56:53;;;;;;;19.60;17.50;;;15.80;99.90;;;;;;5091288;28;20456;-66
2021/07/18 01:59:20;;;;;;;20.80;17.07;;;15.90;99.90;;;;;;5091245;28;20462;-66
2021/07/18 02:01:47;;;;;;;17.90;15.87;;;15.80;99.90;;;;;;5091195;28;20476;-69
2021/07/18 02:04:15;;;;;;;18.60;16.70;;;15.80;99.90;;;;;;5091618;28;20458;-65
2021/07/18 02:06:42;;;;;;;18.23;16.33;;;15.80;99.90;;;;;;5091324;28;20450;-66
2021/07/18 02:09:09;;;;;;;19.20;17.00;;;15.80;99.90;;;;;;5090629;28;20446;-65
2021/07/18 02:11:36;;;;;;;20.20;15.90;;;15.80;99.90;;;;;;5091451;28;20464;-67
2021/07/18 02:14:04;;;;;;;18.07;16.17;;;15.70;99.90;;;;;;5090893;28;20489;-65
2021/07/18 02:16:32;;;;;;;20.70;16.13;;;15.80;99.90;;;;;;5091310;28;20446;-64
2021/07/18 02:19:06;;;;;;;17.73;14.87;;;15.70;99.90;;;;;;5090705;28;20453;-65
2021/07/18 02:21:33;;;;;;;18.67;14.57;;;15.60;99.90;;;;;;5090862;28;20528;-66
2021/07/18 02:24:00;;;;;;;17.03;15.13;;;15.60;99.90;;;;;;5090688;28;20474;-65
2021/07/18 02:26:28;;;;;;;15.67;13.97;;;15.60;99.90;;;;;;5090729;28;20449;-66
2021/07/18 02:28:55;;;;;;;17.30;13.40;;;15.50;99.90;;;;;;5090889;28;20450;-65
2021/07/18 02:31:24;;;;;;;18.80;14.73;;;15.60;99.90;;;;;;5090659;28;20531;-67
2021/07/18 02:33:50;;;;;;;15.87;12.37;;;15.60;99.90;;;;;;5090273;28;20470;-66
2021/07/18 02:36:17;;;;;;;14.20;12.70;;;15.60;99.90;;;;;;5090773;28;20541;-66
2021/07/18 02:38:44;;;;;;;14.63;13.27;;;15.60;99.90;;;;;;5090343;28;20457;-65
2021/07/18 02:41:12;;;;;;;16.67;12.80;;;15.60;99.90;;;;;;5090309;28;20454;-66
2021/07/18 02:43:39;;;;;;;13.20;11.90;;;15.60;99.90;;;;;;5091499;28;20987;-67
2021/07/18 02:46:06;;;;;;;13.20;11.77;;;15.60;99.90;;;;;;5090819;28;20438;-65
2021/07/18 02:48:35;;;;;;;13.50;11.00;;;15.50;99.90;;;;;;5090271;28;20491;-68
2021/07/18 02:51:02;;;;;;;15.37;11.53;;;15.50;99.90;;;;;;5089867;28;20442;-66
2021/07/18 02:53:28;;;;;;;12.73;9.40;;;15.40;99.90;;;;;;5090381;28;20466;-66
2021/07/18 02:55:55;;;;;;;11.20;10.07;;;15.40;99.90;;;;;;5090085;28;20477;-67
2021/07/18 02:58:22;;;;;;;15.37;11.10;;;15.40;99.90;;;;;;5090251;28;20441;-65
2021/07/18 03:00:49;;;;;;;14.10;9.70;;;15.40;99.90;;;;;;5089636;28;20434;-65
2021/07/18 03:03:17;;;;;;;13.17;9.50;;;15.30;99.90;;;;;;5090083;28;20466;-66
2021/07/18 03:05:45;;;;;;;12.17;10.47;;;15.30;99.90;;;;;;5090179;28;20439;-66
2021/07/18 03:08:12;;;;;;;16.77;10.60;;;15.30;99.90;;;;;;5089850;28;20450;-66
2021/07/18 03:10:40;;;;;;;11.03;9.70;;;15.30;99.90;;;;;;5089772;28;20533;-65
2021/07/18 03:13:07;;;;;;;13.67;10.33;;;15.30;99.90;;;;;;5089934;28;21150;-66
2021/07/18 03:15:34;;;;;;;13.50;9.23;;;15.30;99.90;;;;;;5093937;28;20485;-65
2021/07/18 03:18:01;;;;;;;12.10;9.30;;;15.40;99.90;;;;;;5093061;28;20456;-66
2021/07/18 03:20:29;;;;;;;11.97;9.67;;;15.40;99.90;;;;;;5093897;28;20553;-67
2021/07/18 03:22:57;;;;;;;13.70;9.37;;;15.30;99.90;;;;;;5093493;28;20480;-66
2021/07/18 03:25:24;;;;;;;13.30;10.10;;;15.30;99.90;;;;;;5093928;28;20818;-65
2021/07/18 03:27:51;;;;;;;11.70;10.13;;;15.30;99.90;;;;;;5094169;28;20453;-66
2021/07/18 03:30:19;;;;;;;13.40;11.43;;;15.30;99.90;;;;;;5093462;28;20932;-65
2021/07/18 03:32:47;;;;;;;12.37;9.73;;;15.30;99.90;;;;;;5094184;28;20434;-65
2021/07/18 03:35:14;;;;;;;14.77;10.90;;;15.30;99.90;;;;;;5093795;28;20484;-65
2021/07/18 03:37:41;;;;;;;13.37;10.67;;;15.30;99.90;;;;;;5093854;28;20457;-65
2021/07/18 03:40:12;;;;;;;12.77;11.30;;;15.30;99.90;;;;;;5093394;28;20448;-65
2021/07/18 03:42:39;;;;;;;13.90;11.17;;;15.30;99.90;;;;;;5093501;28;20808;-66
2021/07/18 03:45:07;;;;;;;14.10;10.10;;;15.30;99.90;;;;;;5093441;28;20442;-66
2021/07/18 03:47:34;;;;;;;15.90;10.27;;;15.30;99.90;;;;;;5093745;28;20446;-67
2021/07/18 03:50:01;;;;;;;13.67;10.80;;;15.30;99.90;;;;;;5093483;28;20446;-65
2021/07/18 03:52:28;;;;;;;13.00;10.83;;;15.20;99.90;;;;;;5093428;28;20536;-66
2021/07/18 03:54:55;;;;;;;14.57;11.23;;;15.10;99.90;;;;;;5093495;28;20480;-64
2021/07/18 03:57:23;;;;;;;12.73;10.23;;;15.00;99.90;;;;;;5093430;28;20456;-65
2021/07/18 03:59:51;;;;;;;11.80;10.60;;;15.00;99.90;;;;;;5093521;28;20830;-67
2021/07/18 04:02:17;;;;;;;13.80;10.40;;;15.00;99.90;;;;;;5093378;28;20450;-65
2021/07/18 04:04:44;;;;;;;12.50;9.83;;;15.00;99.90;;;;;;5093546;28;20462;-68
2021/07/18 04:07:11;;;;;;;16.10;11.13;;;15.10;99.90;;;;;;5093158;28;20438;-66
2021/07/18 04:09:38;;;;;;;14.00;9.70;;;15.00;99.90;;;;;;5092613;28;20446;-65
2021/07/18 04:12:05;;;;;;;12.47;9.70;;;15.00;99.90;;;;;;5093296;28;20481;-67
2021/07/18 04:14:34;;;;;;;15.33;8.87;;;15.00;99.90;;;;;;5092857;28;20484;-65
2021/07/18 04:17:01;;;;;;;11.60;8.43;;;15.00;99.90;;;;;;5093061;28;21119;-66
2021/07/18 04:19:27;;;;;;;10.40;8.47;;;15.10;99.90;;;;;;5093092;28;20457;-66
2021/07/18 04:21:54;;;;;;;10.80;8.20;;;15.10;99.90;;;;;;5093212;28;20454;-66
2021/07/18 04:24:21;;;;;;;7.50;6.70;;;15.10;99.90;;;;;;5092099;28;20554;-66
2021/07/18 04:26:48;;;;;;;10.67;7.40;;;15.20;99.90;;;;;;5093039;28;20449;-65
2021/07/18 04:29:14;;;;;;;11.07;6.30;;;15.20;99.90;;;;;;5092782;28;20442;-66
2021/07/18 04:31:43;;;;;;;7.90;7.00;;;15.30;99.90;;;;;;5092972;28;20442;-65
2021/07/18 04:34:09;;;;;;;8.83;6.17;;;15.30;99.90;;;;;;5092765;28;21318;-67
2021/07/18 04:36:36;;;;;;;9.67;6.20;;;15.40;99.90;;;;;;5092564;28;20484;-66
2021/07/18 04:39:03;;;;;;;10.33;5.70;;;15.40;99.90;;;;;;5092268;28;20450;-68
2021/07/18 04:41:30;;;;;;;6.60;5.37;;;15.50;99.90;;;;;;5092259;28;20446;-67
2021/07/18 04:43:57;;;;;;;9.90;6.00;;;15.70;99.90;;;;;;5092522;28;20466;-67
2021/07/18 04:46:24;;;;;;;7.87;6.40;;;15.80;99.90;;;;;;5092160;28;20442;-67
2021/07/18 04:48:52;;;;;;;7.07;5.80;;;15.80;99.90;;;;;;5092306;28;20450;-66
2021/07/18 04:51:19;;;;;;;15.50;6.47;;;16.00;99.90;;;;;;5092090;28;20446;-66
2021/07/18 04:53:46;;;;;;;9.87;5.50;;;16.10;99.90;;;;;;5091733;28;20481;-66
2021/07/18 04:56:12;;;;;;;7.10;5.10;;;16.20;99.90;;;;;;5092211;28;20486;-67
2021/07/18 04:58:39;;;;;;;5.80;5.00;;;16.30;99.90;;;;;;5092156;28;20461;-66
2021/07/18 05:01:07;;;;;;;7.90;5.37;;;16.40;99.90;;;;;;5092094;28;20470;-66
2021/07/18 05:03:34;;;;;;;7.63;5.33;;;16.40;99.90;;;;;;5091719;28;20480;-66
2021/07/18 05:06:05;;;;;;;7.73;4.50;;;16.50;99.90;;;;;;5092012;28;20456;-67
2021/07/18 05:08:33;;;;;;;7.93;4.20;;;16.50;99.90;;;;;;5092114;28;20874;-66
2021/07/18 05:11:00;;;;;;;7.57;4.10;;;16.60;99.90;;;;;;5092060;28;20446;-66
2021/07/18 05:13:27;;;;;;;6.30;3.73;;;16.70;99.90;;;;;;5092020;28;20468;-64
2021/07/18 05:15:54;;;;;;;5.63;4.00;;;16.70;99.90;;;;;;5091621;28;20478;-66
2021/07/18 05:18:20;;;;;;;6.00;4.40;;;16.90;99.90;;;;;;5091901;28;20833;-67
2021/07/18 05:20:47;;;;;;;5.90;4.20;;;17.00;99.90;;;;;;5091445;28;20450;-65
2021/07/18 05:23:16;;;;;;;9.13;3.77;;;17.10;99.90;;;;;;5091779;28;20466;-66
2021/07/18 05:25:42;;;;;;;4.63;3.20;;;17.10;99.90;;;;;;5091905;28;20442;-66
2021/07/18 05:28:09;;;;;;;5.17;3.63;;;17.10;99.90;;;;;;5091872;28;20829;-66
2021/07/18 05:30:37;;;;;;;5.07;3.60;;;17.20;99.90;;;;;;5091200;28;20528;-68
2021/07/18 05:33:04;;;;;;;5.77;3.47;;;17.20;99.90;;;;;;5091384;28;20463;-67
2021/07/18 05:35:31;;;;;;;5.10;3.60;;;17.30;99.90;;;;;;5091074;28;20488;-66
2021/07/18 05:37:57;;;;;;;8.00;3.07;;;17.40;99.90;;;;;;5093329;28;20446;-65
2021/07/18 05:40:26;;;;;;;4.63;3.30;;;17.40;99.90;;;;;;5091586;28;21027;-65
2021/07/18 05:42:53;;;;;;;4.50;3.77;;;17.50;99.90;;;;;;5091329;28;20442;-68
2021/07/18 05:45:20;;;;;;;5.87;3.03;;;17.50;99.90;;;;;;5091951;28;20561;-66
2021/07/18 05:47:47;;;;;;;6.60;3.33;;;17.60;99.90;;;;;;5091306;28;20529;-67
2021/07/18 05:50:14;;;;;;;6.20;3.43;;;17.70;99.90;;;;;;5091322;28;20875;-66
2021/07/18 05:52:41;;;;;;;6.07;3.60;;;17.70;99.90;;;;;;5090903;28;20446;-66
2021/07/18 05:55:10;;;;;;;4.30;3.03;;;17.80;99.90;;;;;;5091369;28;20500;-65
2021/07/18 05:57:38;;;;;;;3.93;2.60;;;17.80;99.90;;;;;;5091246;28;20524;-65
2021/07/18 06:00:07;;;;;;;6.17;3.23;;;17.90;99.90;;;;;;5091568;28;20450;-67
2021/07/18 06:02:34;;;;;;;3.63;2.60;;;17.90;99.90;;;;;;5091566;28;20446;-66
2021/07/18 06:05:01;;;;;;;5.10;2.80;;;18.00;99.90;;;;;;5091026;28;20457;-65
2021/07/18 06:07:28;;;;;;;6.10;2.60;;;18.00;99.90;;;;;;5091091;28;20446;-66
2021/07/18 06:09:54;;;;;;;4.50;2.97;;;18.10;99.90;;;;;;5090350;28;20533;-66
2021/07/18 06:12:21;;;;;;;3.87;2.43;;;18.20;99.90;;;;;;5091256;28;20450;-65
2021/07/18 06:14:50;;;;;;;3.90;2.40;;;18.20;99.90;;;;;;5090086;28;20971;-65
2021/07/18 06:17:17;;;;;;;3.80;2.50;;;18.30;99.90;;;;;;5090829;28;20446;-65
2021/07/18 06:19:44;;;;;;;4.40;2.50;;;18.30;99.90;;;;;;5089644;28;20976;-67
2021/07/18 06:22:11;;;;;;;6.33;3.00;;;18.40;99.90;;;;;;5090402;28;20438;-65
2021/07/18 06:24:40;;;;;;;5.93;2.87;;;18.40;99.90;;;;;;5090323;28;21086;-66
2021/07/18 06:27:08;;;;;;;4.00;2.70;;;18.50;99.90;;;;;;5090938;28;20476;-66
2021/07/18 06:29:34;;;;;;;6.23;2.80;;;18.50;99.90;;;;;;5090433;28;20438;-64
2021/07/18 06:32:05;;;;;;;3.90;2.47;;;18.60;99.90;;;;;;5090319;28;20969;-65
2021/07/18 06:34:32;;;;;;;4.90;2.67;;;18.60;99.90;;;;;;5090546;28;20458;-65
2021/07/18 06:37:00;;;;;;;5.30;2.90;;;18.70;99.90;;;;;;5090353;28;20573;-65
2021/07/18 06:39:26;;;;;;;3.60;3.00;;;18.70;99.90;;;;;;5090150;28;20491;-65
2021/07/18 06:41:53;;;;;;;5.33;3.30;;;18.70;99.90;;;;;;5090646;28;20477;-67
2021/07/18 06:44:20;;;;;;;4.70;3.40;;;18.80;99.90;;;;;;5090663;28;20466;-63
2021/07/18 06:46:47;;;;;;;5.93;3.43;;;18.80;99.90;;;;;;5090482;28;20442;-65
2021/07/18 06:49:15;;;;;;;7.00;3.47;;;18.80;99.90;;;;;;5089906;28;20948;-66
2021/07/18 06:51:42;;;;;;;9.40;3.40;;;18.90;99.90;;;;;;5090238;28;20453;-66
2021/07/18 06:54:09;;;;;;;5.40;3.10;;;18.90;99.90;;;;;;5090174;28;20845;-64
2021/07/18 06:56:36;;;;;;;8.67;3.50;;;19.00;99.90;;;;;;5090182;28;20482;-65
2021/07/18 06:59:03;;;;;;;3.87;2.80;;;19.00;99.90;;;;;;5089845;28;20529;-66
2021/07/18 07:01:30;;;;;;;4.43;3.00;;;19.10;99.90;;;;;;5090194;28;20449;-65
2021/07/18 07:03:58;;;;;;;4.70;3.10;;;19.10;99.90;;;;;;5089834;28;20557;-67
2021/07/18 07:06:26;;;;;;;5.80;3.23;;;19.20;99.90;;;;;;5089847;28;20442;-65
2021/07/18 07:08:53;;;;;;;4.40;3.03;;;19.20;99.90;;;;;;5090346;28;20452;-65
2021/07/18 07:11:21;;;;;;;6.53;3.00;;;19.30;99.90;;;;;;5089631;28;21021;-66
2021/07/18 07:13:48;;;;;;;13.90;2.80;;;19.30;99.90;;;;;;5090184;28;20834;-65
2021/07/18 07:16:14;;;;;;;5.20;3.43;;;19.40;99.90;;;;;;5089810;28;20826;-64
2021/07/18 07:18:42;;;;;;;4.57;3.27;;;19.30;99.90;;;;;;5089949;28;20452;-65
2021/07/18 07:21:09;;;;;;;5.50;3.30;;;19.30;99.90;;;;;;5089795;28;20454;-65
2021/07/18 07:23:39;;;;;;;4.60;3.23;;;19.50;99.90;;;;;;5090144;28;20470;-64
2021/07/18 07:26:06;;;;;;;4.23;3.40;;;19.60;99.90;;;;;;5090127;28;20442;-65
2021/07/18 07:28:33;;;;;;;4.40;2.93;;;19.60;99.90;;;;;;5089935;28;20450;-65
2021/07/18 07:31:00;;;;;;;7.13;3.43;;;19.70;99.90;;;;;;5089811;28;20446;-64
2021/07/18 07:33:29;;;;;;;4.60;3.20;;;19.70;99.90;;;;;;5090126;28;20549;-63
2021/07/18 07:35:56;;;;;;;5.00;3.27;;;19.80;99.90;;;;;;5090416;28;20714;-64
2021/07/18 07:38:23;;;;;;;6.23;3.20;;;19.90;99.90;;;;;;5090383;28;20468;-65
2021/07/18 07:40:51;;;;;;;6.73;3.33;;;19.90;99.90;;;;;;5090167;28;20473;-65
2021/07/18 07:43:19;;;;;;;4.00;2.77;;;20.00;99.90;;;;;;5090004;28;20468;-67
2021/07/18 07:45:46;;;;;;;5.07;2.83;;;20.10;99.90;;;;;;5089906;28;20450;-67
2021/07/18 07:48:13;;;;;;;4.47;2.87;;;20.20;99.90;;;;;;5089679;28;20461;-66
2021/07/18 07:50:40;;;;;;;5.33;3.17;;;20.40;99.90;;;;;;5089252;28;20450;-64
2021/07/18 07:53:07;;;;;;;5.27;3.07;;;20.40;99.90;;;;;;5089431;28;20458;-64
2021/07/18 07:55:35;;;;;;;5.43;3.47;;;20.30;99.90;;;;;;5089504;28;20449;-64
2021/07/18 07:58:05;;;;;;;5.07;3.20;;;20.30;99.90;;;;;;5089580;28;20449;-64
2021/07/18 08:00:32;;;;;;;4.53;2.70;;;20.40;99.90;;;;;;5091965;28;20426;-70
2021/07/18 08:02:59;;;;;;;6.00;3.60;;;20.30;99.90;;;;;;5087227;28;20477;-67
2021/07/18 08:05:26;;;;;;;4.77;2.90;;;20.30;99.90;;;;;;5087679;28;20551;-69
2021/07/18 08:07:53;;;;;;;5.10;2.60;;;20.30;99.90;;;;;;5091362;28;20541;-67
2021/07/18 08:10:22;;;;;;;4.93;2.90;;;20.40;99.90;;;;;;5098198;28;20444;-66
2021/07/18 08:12:49;;;;;;;6.13;3.00;;;20.50;99.90;;;;;;5088974;28;20454;-67
2021/07/18 08:15:19;;;;;;;5.50;3.23;;;20.60;99.90;;;;;;5099613;28;20542;-66
2021/07/18 08:17:46;;;;;;;4.50;3.13;;;20.70;99.90;;;;;;5097626;28;20566;-67
2021/07/18 08:20:17;;;;;;;4.53;3.00;;;20.80;99.90;;;;;;5099289;28;20458;-67
2021/07/18 08:22:45;;;;;;;5.20;3.10;;;20.80;99.90;;;;;;5098511;28;20537;-66
2021/07/18 08:25:14;;;;;;;5.77;3.43;;;20.80;99.90;;;;;;5095894;28;20445;-66
2021/07/18 08:27:41;;;;;;;4.50;2.80;;;21.00;99.90;;;;;;5095064;28;20442;-65
2021/07/18 08:30:10;;;;;;;7.40;3.10;;;21.10;99.90;;;;;;5095108;28;20444;-66
2021/07/18 08:32:38;;;;;;;4.67;3.20;;;21.20;99.90;;;;;;5094732;28;20480;-66
2021/07/18 08:35:06;;;;;;;6.20;3.40;;;21.20;99.90;;;;;;5094225;28;20549;-68
2021/07/18 08:37:33;;;;;;;6.93;3.67;;;21.40;99.90;;;;;;5095228;28;20482;-66
2021/07/18 08:40:00;;;;;;;5.43;3.70;;;21.50;99.90;;;;;;5084547;28;20547;-66
2021/07/18 08:42:27;;;;;;;5.40;3.10;;;21.60;99.90;;;;;;5093167;28;20529;-68
2021/07/18 08:44:57;;;;;;;4.63;3.37;;;21.50;99.90;;;;;;5087534;28;20452;-66
2021/07/18 08:47:24;;;;;;;9.20;3.33;;;21.50;99.90;;;;;;5093306;28;20947;-67
2021/07/18 08:49:52;;;;;;;6.87;3.67;;;21.50;99.90;;;;;;5086771;28;20512;-66
2021/07/18 08:52:21;;;;;;;6.90;3.10;;;21.60;99.90;;;;;;5082099;28;20451;-76
2021/07/18 08:54:49;;;;;;;5.43;3.30;;;21.70;99.90;;;;;;5087406;28;20466;-66
2021/07/18 08:57:19;;;;;;;4.07;2.63;;;21.80;99.90;;;;;;5080712;28;20487;-68
2021/07/18 08:59:46;;;;;;;5.40;3.70;;;22.00;99.90;;;;;;5073038;28;20455;-72
2021/07/18 09:02:13;;;;;;;5.87;2.90;;;22.10;99.90;;;;;;5083391;28;20959;-68
2021/07/18 09:04:40;;;;;;;5.20;3.30;;;22.30;99.90;;;;;;5086594;28;20471;-70
2021/07/18 09:07:10;;;;;;;4.63;3.20;;;22.30;99.90;;;;;;5086677;28;20540;-65
2021/07/18 09:09:37;;;;;;;5.97;3.50;;;22.30;99.90;;;;;;5083097;28;20941;-65
2021/07/18 09:12:06;;;;;;;5.50;3.57;;;22.20;99.90;;;;;;5082160;28;20996;-69
2021/07/18 09:14:35;;;;;;;5.33;3.30;;;22.20;99.90;;;;;;5086600;28;20463;-68
2021/07/18 09:17:03;;;;;;;4.57;3.20;;;22.30;99.90;;;;;;5081410;28;20561;-64
2021/07/18 09:19:31;;;;;;;9.20;3.43;;;22.40;99.90;;;;;;5071815;28;20498;-65
2021/07/18 09:22:11;;;;;;;6.10;3.30;;;22.60;99.90;;;;;;5083266;28;20522;-67
2021/07/18 09:24:41;;;;;;;5.30;3.00;;;22.70;99.90;;;;;;5071975;28;20463;-64
2021/07/18 09:27:11;;;;;;;4.23;2.83;;;22.80;99.90;;;;;;5084743;28;20529;-65
2021/07/18 09:29:40;;;;;;;6.50;3.43;;;23.00;99.90;;;;;;5084264;28;20541;-64
2021/07/18 09:32:09;;;;;;;4.90;2.83;;;23.10;99.90;;;;;;5071354;28;20490;-64
2021/07/18 09:34:38;;;;;;;4.27;2.80;;;23.20;99.90;;;;;;5071607;28;20467;-63
2021/07/18 09:37:18;;;;;;;5.17;3.13;;;23.20;99.90;;;;;;5071520;28;20493;-65
2021/07/18 09:39:54;;;;;;;5.07;3.50;;;23.30;99.90;;;;;;5073630;28;20454;-64
2021/07/18 09:42:43;;;;;;;4.97;3.37;;;23.60;99.90;;;;;;5081977;28;20929;-65
2021/07/18 09:45:21;;;;;;;5.67;2.70;;;23.70;99.90;;;;;;5082933;28;20539;-63
2021/07/18 09:47:55;;;;;;;6.30;4.90;;;23.80;99.90;;;;;;5070824;28;20449;-64
2021/07/18 09:50:27;;;;;;;4.67;3.13;;;23.90;99.90;;;;;;5072039;28;20533;-65
2021/07/18 09:53:09;;;;;;;5.00;2.80;;;23.90;99.90;;;;;;5075955;28;20663;-64
2021/07/18 09:55:36;;;;;;;4.90;3.20;;;24.00;99.90;;;;;;5082961;28;20447;-64
2021/07/18 09:58:03;;;;;;;6.30;3.73;;;24.20;99.90;;;;;;5083167;28;20475;-64
2021/07/18 10:00:41;;;;;;;6.40;3.40;;;24.50;99.90;;;;;;5077726;28;20447;-65
2021/07/18 10:03:12;;;;;;;7.10;3.43;;;24.90;99.90;;;;;;5080478;28;20551;-65
2021/07/18 10:05:39;;;;;;;4.20;2.67;;;25.50;99.90;;;;;;5078528;28;20534;-64
2021/07/18 10:08:10;;;;;;;4.60;2.77;;;25.80;99.90;;;;;;5070636;28;20932;-63
2021/07/18 10:10:39;;;;;;;4.93;2.70;;;26.00;99.90;;;;;;5073693;28;20452;-63
2021/07/18 10:13:09;;;;;;;6.70;3.37;;;26.00;99.90;;;;;;5082966;28;20467;-65
2021/07/18 10:15:36;;;;;;;4.77;3.10;;;26.40;99.90;;;;;;5079971;28;20450;-66
2021/07/18 10:18:04;;;;;;;7.10;2.67;;;26.60;99.90;;;;;;5077192;28;21020;-70
2021/07/18 10:20:34;;;;;;;6.60;3.33;;;26.70;99.90;;;;;;5078529;28;20467;-65
2021/07/18 10:23:01;;;;;;;4.87;2.90;;;27.00;99.90;;;;;;5080785;28;20470;-65
2021/07/18 10:25:30;;;;;;;6.87;3.33;;;26.90;99.90;;;;;;5082208;28;20452;-65
2021/07/18 10:27:58;;;;;;;7.40;2.90;;;26.90;99.90;;;;;;5078872;28;20469;-63
2021/07/18 10:30:26;;;;;;;4.70;2.87;;;26.60;99.90;;;;;;5084353;28;20556;-66
2021/07/18 10:32:56;;;;;;;4.17;2.83;;;26.80;99.90;;;;;;5069418;28;20503;-65
2021/07/18 10:35:24;;;;;;;6.20;2.87;;;26.50;99.90;;;;;;5068434;28;20451;-64
2021/07/18 10:37:51;;;;;;;6.73;2.90;;;26.10;99.90;;;;;;5075544;28;20577;-64
2021/07/18 10:40:22;;;;;;;6.23;2.70;;;26.40;99.90;;;;;;5085321;28;20575;-65
2021/07/18 10:42:51;;;;;;;3.77;2.77;;;26.30;99.90;;;;;;5081450;28;20915;-66
2021/07/18 10:45:23;;;;;;;5.27;2.90;;;26.50;99.90;;;;;;5068660;28;20886;-64
2021/07/18 10:47:58;;;;;;;6.07;3.20;;;26.40;99.90;;;;;;5070618;28;20448;-64
2021/07/18 10:50:46;;;;;;;4.57;2.40;;;26.50;99.90;;;;;;5072839;28;20482;-65
2021/07/18 10:53:18;;;;;;;4.77;2.53;;;26.90;99.90;;;;;;5063719;28;20599;-66
2021/07/18 10:55:45;;;;;;;4.30;3.17;;;27.30;99.90;;;;;;5077866;28;20443;-67
2021/07/18 10:58:33;;;;;;;6.17;3.20;;;27.00;99.90;;;;;;5080149;28;20478;-65
2021/07/18 11:01:00;;;;;;;5.13;2.87;;;27.00;99.90;;;;;;5077939;28;21222;-65
2021/07/18 11:03:34;;;;;;;5.43;2.90;;;27.00;99.90;;;;;;5082275;28;20455;-64
2021/07/18 11:06:20;;;;;;;6.17;3.30;;;27.20;99.90;;;;;;5077866;28;20443;-64
2021/07/18 11:09:12;;;;;;;11.63;3.30;;;27.40;99.90;;;;;;5077563;28;20430;-64
2021/07/18 11:11:39;;;;;;;5.53;3.17;;;27.10;99.90;;;;;;5076354;28;20541;-64
2021/07/18 11:14:24;;;;;;;6.97;2.70;;;27.20;99.90;;;;;;5075321;28;20531;-66
2021/07/18 11:16:53;;;;;;;8.10;3.00;;;27.10;99.90;;;;;;5077194;28;20473;-65
2021/07/18 11:19:54;;;;;;;9.20;3.10;;;27.00;99.90;;;;;;5075922;28;21034;-65
2021/07/18 11:23:01;;;;;;;5.17;2.83;;;27.90;99.90;;;;;;5072196;28;20442;-64
2021/07/18 11:25:48;;;;;;;6.37;3.30;;;27.90;99.90;;;;;;5079728;28;20855;-67
2021/07/18 11:28:51;;;;;;;3.90;3.03;;;27.30;99.90;;;;;;5078496;28;20435;-64
2021/07/18 11:31:29;;;;;;;6.40;3.90;;;27.30;99.60;;;;;;5061733;28;20537;-66
2021/07/18 11:34:14;;;;;;;4.90;2.70;;;27.00;99.90;;;;;;5072650;28;20553;-66
2021/07/18 11:36:50;;;;;;;10.77;3.70;;;27.10;99.90;;;;;;5080527;28;20457;-67
2021/07/18 11:39:20;;;;;;;5.30;3.60;;;27.60;99.50;;;;;;5081326;28;20454;-66
2021/07/18 11:41:49;;;;;;;4.27;2.90;;;28.00;98.90;;;;;;5081206;28;20568;-66
2021/07/18 11:44:18;;;;;;;5.03;3.33;;;28.10;98.50;;;;;;5080374;28;20468;-66
2021/07/18 11:46:50;;;;;;;6.20;3.33;;;29.00;99.90;;;;;;5089133;28;20434;-65
2021/07/18 11:49:19;;;;;;;7.13;3.23;;;30.30;99.20;;;;;;5083714;28;20459;-65
2021/07/18 11:51:48;;;;;;;4.73;3.77;;;30.60;96.50;;;;;;5084780;28;20488;-65
2021/07/18 11:54:16;;;;;;;6.20;4.00;;;30.00;96.00;;;;;;5076030;28;20551;-66
2021/07/18 11:56:46;;;;;;;4.50;3.80;;;29.40;95.70;;;;;;5079715;28;20529;-65
2021/07/18 11:59:14;;;;;;;6.63;4.30;;;29.40;96.20;;;;;;5085501;28;20446;-66
2021/07/18 12:01:42;;;;;;;5.73;4.53;;;29.30;96.30;;;;;;5081875;28;20481;-65
2021/07/18 12:04:12;;;;;;;7.83;5.20;;;29.50;95.00;;;;;;5081172;28;20991;-67
2021/07/18 12:06:40;;;;;;;6.93;5.10;;;29.80;95.70;;;;;;5081724;28;20518;-67
2021/07/18 12:09:15;;;;;;;8.00;5.87;;;29.40;95.30;;;;;;5080847;28;20435;-65
2021/07/18 12:11:42;;;;;;;9.43;6.13;;;29.00;96.80;;;;;;5084004;28;20437;-65
2021/07/18 12:14:11;;;;;;;6.83;5.07;;;29.10;96.20;;;;;;5085780;28;20447;-65
2021/07/18 12:16:39;;;;;;;6.93;4.73;;;29.40;98.20;;;;;;5076801;28;20948;-63
2021/07/18 12:19:08;;;;;;;7.53;5.20;;;29.80;95.70;;;;;;5086438;28;20940;-65
2021/07/18 12:21:38;;;;;;;8.93;6.43;;;30.30;94.50;;;;;;5091484;28;20450;-67
2021/07/18 12:24:21;;;;;;;8.50;6.63;;;30.00;94.20;;;;;;5077157;28;20470;-66
2021/07/18 12:26:50;;;;;;;7.70;7.00;;;29.40;95.10;;;;;;5075369;28;20473;-65
2021/07/18 12:29:18;;;;;;;8.10;6.63;;;29.10;95.80;;;;;;5079722;28;20438;-64
2021/07/18 12:31:47;;;;;;;8.70;6.90;;;29.70;97.30;;;;;;5076842;28;20439;-64
2021/07/18 12:34:15;;;;;;;11.73;9.13;;;30.30;93.80;;;;;;5078211;28;20833;-64
2021/07/18 12:37:01;;;;;;;10.00;7.70;;;30.60;93.90;;;;;;5078052;28;20453;-64
2021/07/18 12:39:30;;;;;;;9.77;8.77;;;30.80;93.50;;;;;;5068832;28;20529;-64
2021/07/18 12:42:00;;;;;;;9.03;7.83;;;30.60;94.30;;;;;;5070026;28;20443;-66
2021/07/18 12:44:28;;;;;;;11.17;9.40;;;31.30;92.40;;;;;;5071704;28;20468;-66
2021/07/18 12:47:21;;;;;;;11.40;9.17;;;30.90;93.40;;;;;;5077714;28;20442;-66
2021/07/18 12:50:13;;;;;;;12.60;9.03;;;31.00;92.30;;;;;;5072148;28;20439;-68